Time;durP1;ratioP1;P1;durP2;ratioP2;P2;SDS_P1;SDS_P2;PMS_P1;PMS_P2;Temp;Humidity;BMP_temperature;BMP_pressure;BME280_temperature;BME280_humidity;BME280_pressure;Samples;Min_cycle;Max_cycle;Signal;HPM_P1;HPM_P2
2021/08/18 00:02:23;;;;;;;14.02;6.22;;;;;;;27.04;42.22;99349.66;5089459;28;20036;-74
2021/08/18 00:04:48;;;;;;;10.82;5.47;;;;;;;26.70;42.79;99331.31;5097543;28;20020;-75
2021/08/18 00:07:13;;;;;;;18.90;6.32;;;;;;;26.73;43.25;99343.53;5083522;28;20043;-75
2021/08/18 00:09:39;;;;;;;8.45;5.88;;;;;;;26.82;42.92;99341.03;5091056;28;20036;-74
2021/08/18 00:12:06;;;;;;;11.80;6.15;;;;;;;26.79;42.71;99312.53;5075355;28;20138;-75
2021/08/18 00:14:33;;;;;;;15.38;6.28;;;;;;;26.89;42.23;99317.91;5098477;28;20024;-76
2021/08/18 00:17:00;;;;;;;12.32;5.95;;;;;;;26.89;42.09;99320.63;5084218;28;20055;-78
2021/08/18 00:19:25;;;;;;;14.50;6.07;;;;;;;26.90;42.21;99322.25;5069737;28;20020;-72
2021/08/18 00:21:51;;;;;;;15.60;6.00;;;;;;;26.75;42.76;99322.31;5096661;28;20031;-79
2021/08/18 00:24:16;;;;;;;8.30;5.68;;;;;;;26.73;42.59;99310.94;5091488;28;20032;-78
2021/08/18 00:26:42;;;;;;;13.15;5.70;;;;;;;26.67;42.91;99306.59;5071136;28;20259;-73
2021/08/18 00:29:07;;;;;;;11.48;5.80;;;;;;;26.63;42.81;99300.13;5092583;28;20028;-75
2021/08/18 00:31:33;;;;;;;24.85;6.18;;;;;;;26.65;42.71;99301.47;5087652;28;20035;-74
2021/08/18 00:33:58;;;;;;;12.70;6.57;;;;;;;26.53;42.67;99290.09;5075214;28;20242;-74
2021/08/18 00:36:24;;;;;;;15.23;6.13;;;;;;;26.42;43.48;99302.09;5093206;28;20031;-74
2021/08/18 00:38:49;;;;;;;19.35;6.47;;;;;;;26.22;43.40;99302.94;5099650;28;20020;-74
2021/08/18 00:41:15;;;;;;;10.60;5.75;;;;;;;25.98;44.41;99288.28;5087549;28;20040;-75
2021/08/18 00:43:40;;;;;;;10.85;5.55;;;;;;;25.87;44.51;99284.78;5098336;28;20318;-75
2021/08/18 00:46:06;;;;;;;10.50;5.97;;;;;;;25.96;44.08;99268.78;5102407;28;20184;-75
2021/08/18 00:48:31;;;;;;;11.00;5.80;;;;;;;25.94;43.99;99269.03;5097147;28;20043;-74
2021/08/18 00:50:57;;;;;;;10.95;6.25;;;;;;;26.04;43.48;99262.81;5092811;28;20140;-74
2021/08/18 00:53:22;;;;;;;10.60;5.90;;;;;;;26.21;42.89;99254.34;5096828;28;20073;-74
2021/08/18 00:55:48;;;;;;;14.10;5.70;;;;;;;26.08;43.53;99248.41;5092902;28;20035;-74
2021/08/18 00:58:13;;;;;;;10.30;5.45;;;;;;;25.93;43.22;99242.19;5077403;28;20028;-74
2021/08/18 01:00:39;;;;;;;14.52;5.43;;;;;;;26.00;43.50;99248.16;5084456;28;20035;-75
2021/08/18 01:03:04;;;;;;;10.70;5.30;;;;;;;25.82;43.12;99232.44;5090351;28;20020;-74
2021/08/18 01:05:31;;;;;;;12.07;5.80;;;;;;;25.86;43.66;99242.47;5088728;28;20030;-74
2021/08/18 01:07:59;;;;;;;9.30;5.53;;;;;;;25.89;43.35;99241.94;5092169;28;20050;-74
2021/08/18 01:10:30;;;;;;;11.98;5.32;;;;;;;25.93;42.98;99234.88;5074393;28;20385;-76
2021/08/18 01:12:56;;;;;;;12.35;6.00;;;;;;;25.81;43.46;99237.06;5084007;28;20074;-78
2021/08/18 01:15:24;;;;;;;11.52;6.10;;;;;;;25.80;43.22;99229.19;5073964;28;20278;-73
2021/08/18 01:17:52;;;;;;;10.23;4.75;;;;;;;25.67;43.46;99230.56;5092584;28;20036;-78
2021/08/18 01:20:27;;;;;;;10.77;5.32;;;;;;;25.66;43.58;99231.66;5088622;28;20043;-72
2021/08/18 01:22:54;;;;;;;19.85;5.45;;;;;;;25.71;43.31;99226.22;5087279;28;20037;-74
2021/08/18 01:25:20;;;;;;;18.98;6.20;;;;;;;25.63;43.43;99230.28;5090969;28;20375;-74
2021/08/18 01:27:52;;;;;;;10.60;5.40;;;;;;;25.60;44.05;99238.97;5068933;28;20059;-74
2021/08/18 01:30:22;;;;;;;8.68;5.32;;;;;;;25.60;43.83;99221.88;5085785;28;20024;-75
2021/08/18 01:32:54;;;;;;;20.75;6.43;;;;;;;25.63;44.10;99224.03;5096406;28;20058;-74
2021/08/18 01:35:32;;;;;;;13.18;5.88;;;;;;;25.65;44.00;99224.59;5081301;28;20082;-75
2021/08/18 01:37:57;;;;;;;14.13;6.10;;;;;;;25.51;44.12;99218.91;5089934;28;20210;-75
2021/08/18 01:40:24;;;;;;;14.65;5.85;;;;;;;25.63;44.01;99235.69;5121502;28;20034;-74
2021/08/18 01:42:50;;;;;;;7.75;5.25;;;;;;;25.68;44.02;99246.56;5095103;28;20021;-74
2021/08/18 01:45:30;;;;;;;13.52;5.97;;;;;;;25.64;44.00;99245.47;5087219;28;20032;-74
2021/08/18 01:47:57;;;;;;;14.00;5.65;;;;;;;25.35;44.50;99242.50;5094462;28;20056;-74
2021/08/18 01:50:24;;;;;;;14.10;6.20;;;;;;;25.58;43.70;99262.00;5074093;28;20027;-74
2021/08/18 01:52:53;;;;;;;16.33;6.22;;;;;;;25.21;44.91;99273.91;5089988;28;20376;-74
2021/08/18 01:55:26;;;;;;;13.52;6.20;;;;;;;25.21;44.92;99283.94;5085308;28;20134;-74
2021/08/18 01:57:53;;;;;;;13.07;5.78;;;;;;;25.43;44.03;99292.63;5077474;28;20047;-75
2021/08/18 02:00:19;;;;;;;10.15;6.40;;;;;;;25.26;44.42;99289.38;5094401;28;20099;-74
2021/08/18 02:02:45;;;;;;;20.35;6.50;;;;;;;25.36;44.26;99294.78;5083380;28;20074;-74
2021/08/18 02:05:11;;;;;;;11.20;6.30;;;;;;;25.48;43.62;99302.66;5087750;28;20024;-72
2021/08/18 02:07:37;;;;;;;14.77;6.28;;;;;;;25.37;43.81;99312.69;5096281;28;20035;-78
2021/08/18 02:10:10;;;;;;;10.07;5.93;;;;;;;24.85;44.99;99321.72;5087854;28;20072;-77
2021/08/18 02:12:37;;;;;;;17.97;6.23;;;;;;;24.16;47.10;99320.00;5086359;28;20040;-71
2021/08/18 02:15:09;;;;;;;12.82;5.50;;;;;;;23.89;47.94;99338.16;5095396;28;20028;-72
2021/08/18 02:17:34;;;;;;;14.27;6.68;;;;;;;23.55;48.72;99322.19;5086740;28;20036;-75
2021/08/18 02:20:00;;;;;;;14.75;6.60;;;;;;;23.77;48.63;99341.03;5083478;28;20029;-75
2021/08/18 02:22:25;;;;;;;11.50;6.18;;;;;;;23.80;48.39;99335.13;5074492;28;20039;-74
2021/08/18 02:24:51;;;;;;;16.38;5.78;;;;;;;24.12;47.64;99328.88;5091537;28;20286;-74
2021/08/18 02:27:16;;;;;;;14.55;6.25;;;;;;;24.19;47.28;99338.41;5065674;28;20215;-74
2021/08/18 02:29:42;;;;;;;10.88;5.85;;;;;;;24.17;47.25;99342.44;5085222;28;20040;-75
2021/08/18 02:32:07;;;;;;;14.27;6.15;;;;;;;23.95;48.18;99342.56;5084999;28;20222;-74
2021/08/18 02:34:33;;;;;;;10.23;6.00;;;;;;;24.00;48.03;99341.78;5090460;28;20024;-74
2021/08/18 02:36:58;;;;;;;14.38;6.57;;;;;;;23.98;48.21;99350.16;5095647;28;20166;-74
2021/08/18 02:39:24;;;;;;;17.75;7.20;;;;;;;24.07;48.00;99347.78;5083383;28;20344;-74
2021/08/18 02:41:49;;;;;;;15.18;7.07;;;;;;;24.24;47.58;99353.03;5089639;28;20217;-74
2021/08/18 02:44:15;;;;;;;12.10;6.07;;;;;;;24.31;47.14;99353.66;5097876;28;20093;-74
2021/08/18 02:46:41;;;;;;;14.15;6.00;;;;;;;24.19;46.95;99313.25;5091025;28;20269;-74
2021/08/18 02:49:06;;;;;;;99.40;11.35;;;;;;;24.27;47.44;99337.13;5079272;28;20029;-74
2021/08/18 02:51:32;;;;;;;75.13;7.45;;;;;;;24.46;47.06;99349.16;5085404;28;20028;-74
2021/08/18 02:53:57;;;;;;;21.20;6.45;;;;;;;24.45;46.76;99342.09;5094445;28;20040;-75
2021/08/18 02:56:22;;;;;;;15.13;6.03;;;;;;;24.33;47.05;99336.09;5096431;28;20031;-74
2021/08/18 02:58:48;;;;;;;11.90;5.75;;;;;;;24.38;47.29;99340.72;5094019;28;20024;-74
2021/08/18 03:01:13;;;;;;;10.48;6.00;;;;;;;24.83;46.37;99357.19;5091453;28;20024;-74
2021/08/18 03:03:39;;;;;;;14.32;5.95;;;;;;;24.86;46.52;99349.59;5100685;28;20039;-72
2021/08/18 03:06:04;;;;;;;12.20;6.35;;;;;;;24.70;47.04;99357.66;5093326;28;20028;-78
2021/08/18 03:08:30;;;;;;;11.02;5.90;;;;;;;24.64;46.98;99347.06;5104009;28;20047;-77
2021/08/18 03:10:55;;;;;;;13.80;6.03;;;;;;;24.77;46.94;99360.13;5102599;28;20218;-72
2021/08/18 03:13:20;;;;;;;12.63;6.15;;;;;;;24.78;47.13;99354.44;5095968;28;20046;-75
2021/08/18 03:15:46;;;;;;;9.52;5.78;;;;;;;24.64;48.02;99360.59;5093689;28;20329;-74
2021/08/18 03:18:11;;;;;;;22.88;6.75;;;;;;;24.68;47.71;99367.94;5088665;28;20040;-74
2021/08/18 03:20:37;;;;;;;27.90;6.97;;;;;;;24.61;47.89;99361.94;5088573;28;20024;-74
2021/08/18 03:23:02;;;;;;;21.73;7.43;;;;;;;24.67;48.00;99363.59;5101530;28;20360;-74
2021/08/18 03:25:28;;;;;;;25.67;7.63;;;;;;;24.52;48.72;99358.09;5074322;28;20030;-75
2021/08/18 03:27:53;;;;;;;16.75;7.07;;;;;;;24.25;49.88;99363.59;5089624;28;20099;-74
2021/08/18 03:30:19;;;;;;;16.15;6.80;;;;;;;24.08;50.99;99365.66;5076471;28;20099;-74
2021/08/18 03:32:44;;;;;;;11.30;7.25;;;;;;;23.88;52.31;99363.56;5093922;28;20206;-75
2021/08/18 03:35:10;;;;;;;18.67;7.68;;;;;;;23.80;52.78;99356.75;5070319;28;20024;-74
2021/08/18 03:37:36;;;;;;;17.92;7.10;;;;;;;23.71;52.49;99346.66;5098089;28;20055;-75
2021/08/18 03:40:02;;;;;;;19.42;7.28;;;;;;;23.68;52.89;99363.41;5096298;28;20438;-74
2021/08/18 03:42:28;;;;;;;15.50;7.28;;;;;;;23.61;53.63;99358.19;5090497;28;20070;-74
2021/08/18 03:44:53;;;;;;;18.23;7.65;;;;;;;23.65;53.73;99359.31;5093063;28;20252;-74
2021/08/18 03:47:18;;;;;;;10.90;7.78;;;;;;;23.46;54.28;99364.25;5087868;28;20028;-75
2021/08/18 03:49:44;;;;;;;17.27;7.95;;;;;;;23.29;55.21;99368.13;5092900;28;20230;-74
2021/08/18 03:52:09;;;;;;;16.30;8.05;;;;;;;23.00;57.06;99360.22;5097771;28;20066;-74
2021/08/18 03:54:35;;;;;;;18.42;8.20;;;;;;;22.69;58.75;99360.88;5091017;28;20206;-74
2021/08/18 03:57:00;;;;;;;15.98;8.60;;;;;;;22.42;59.90;99358.06;5085079;28;20028;-74
2021/08/18 03:59:26;;;;;;;15.27;8.43;;;;;;;22.38;60.70;99363.16;5083701;28;20036;-74
2021/08/18 04:01:51;;;;;;;14.95;9.02;;;;;;;22.29;60.90;99359.25;5088770;28;20039;-77
2021/08/18 04:04:17;;;;;;;19.45;8.70;;;;;;;22.25;61.32;99364.31;5090136;28;20376;-77
2021/08/18 04:06:43;;;;;;;15.88;7.93;;;;;;;21.92;62.75;99370.50;5095285;28;20031;-77
2021/08/18 04:09:08;;;;;;;19.50;8.48;;;;;;;21.96;62.56;99358.19;5090018;28;20046;-72
2021/08/18 04:11:34;;;;;;;17.98;8.23;;;;;;;22.13;62.15;99371.69;5093996;28;20031;-72
2021/08/18 04:13:59;;;;;;;17.95;9.50;;;;;;;22.21;62.02;99368.56;5096190;28;20322;-73
2021/08/18 04:16:25;;;;;;;23.00;8.75;;;;;;;22.32;61.33;99371.41;5091070;28;20029;-74
2021/08/18 04:18:50;;;;;;;25.30;9.32;;;;;;;22.42;60.95;99369.69;5092197;28;20039;-75
2021/08/18 04:21:16;;;;;;;37.28;9.63;;;;;;;22.62;60.29;99379.94;5089990;28;20048;-73
2021/08/18 04:23:42;;;;;;;22.30;8.85;;;;;;;22.78;59.46;99373.69;5092299;28;20035;-75
2021/08/18 04:26:07;;;;;;;26.20;8.10;;;;;;;22.81;58.97;99357.00;5092409;28;20064;-74
2021/08/18 04:28:32;;;;;;;28.63;8.82;;;;;;;22.92;58.73;99377.69;5083846;28;20314;-74
2021/08/18 04:30:58;;;;;;;28.05;9.50;;;;;;;22.99;58.02;99376.69;5087387;28;20027;-74
2021/08/18 04:33:23;;;;;;;22.80;9.57;;;;;;;22.87;58.50;99374.09;5089433;28;20201;-74
2021/08/18 04:35:49;;;;;;;20.83;8.35;;;;;;;22.95;57.92;99376.38;5086712;28;20218;-74
2021/08/18 04:38:14;;;;;;;30.45;8.85;;;;;;;23.03;57.52;99370.53;5093264;28;20275;-73
2021/08/18 04:40:40;;;;;;;22.83;7.85;;;;;;;23.18;56.68;99373.41;5097802;28;20231;-75
2021/08/18 04:43:06;;;;;;;21.75;8.52;;;;;;;23.55;55.02;99370.84;5098689;28;20031;-75
2021/08/18 04:45:31;;;;;;;33.40;8.60;;;;;;;23.77;54.69;99367.25;5094969;28;20374;-75
2021/08/18 04:47:57;;;;;;;30.30;9.27;;;;;;;23.92;55.07;99383.59;5094843;28;20035;-75
2021/08/18 04:50:24;;;;;;;22.17;7.80;;;;;;;24.09;54.76;99392.44;5099030;28;20031;-74
2021/08/18 04:52:50;;;;;;;24.67;8.43;;;;;;;24.56;53.64;99369.22;5087099;28;20032;-75
2021/08/18 04:55:16;;;;;;;16.55;8.30;;;;;;;24.73;53.40;99386.09;5088042;28;20344;-74
2021/08/18 04:57:42;;;;;;;12.90;7.57;;;;;;;24.77;53.45;99388.03;5096726;28;20036;-74
2021/08/18 05:00:08;;;;;;;15.95;8.20;;;;;;;24.86;53.19;99387.50;5101363;28;20035;-74
2021/08/18 05:02:34;;;;;;;33.90;9.98;;;;;;;25.20;52.52;99398.81;5096973;28;20059;-72
2021/08/18 05:05:01;;;;;;;32.53;9.45;;;;;;;25.30;52.17;99396.13;5092598;28;20386;-72
2021/08/18 05:07:27;;;;;;;24.67;10.27;;;;;;;25.69;51.39;99399.22;5093108;28;20530;-78
2021/08/18 05:09:53;;;;;;;19.85;9.70;;;;;;;25.94;50.49;99401.16;5086073;28;20127;-77
2021/08/18 05:12:18;;;;;;;25.50;9.43;;;;;;;26.19;49.36;99403.06;5092193;28;20047;-74
2021/08/18 05:14:44;;;;;;;19.27;8.50;;;;;;;26.37;49.11;99400.63;5084016;28;20051;-73
2021/08/18 05:17:09;;;;;;;20.30;9.25;;;;;;;26.63;48.13;99398.69;5066527;28;20023;-73
2021/08/18 05:19:34;;;;;;;21.92;8.25;;;;;;;26.72;47.79;99383.44;5088305;28;20028;-75
2021/08/18 05:22:00;;;;;;;18.50;8.82;;;;;;;27.05;46.67;99400.22;5086647;28;20036;-74
2021/08/18 05:24:26;;;;;;;18.25;8.73;;;;;;;27.35;45.90;99401.97;5069899;28;20043;-74
2021/08/18 05:26:51;;;;;;;16.10;8.63;;;;;;;27.79;44.32;99399.28;5083795;28;20029;-75
2021/08/18 05:29:16;;;;;;;17.35;8.40;;;;;;;27.97;43.69;99404.03;5083296;28;20044;-75
2021/08/18 05:31:42;;;;;;;20.90;8.20;;;;;;;28.10;43.18;99401.78;5082741;28;20333;-75
2021/08/18 05:34:07;;;;;;;16.13;8.05;;;;;;;28.23;42.62;99418.31;5065661;28;20029;-76
2021/08/18 05:36:33;;;;;;;18.90;8.05;;;;;;;28.07;43.16;99410.50;5082652;28;20020;-74
2021/08/18 05:38:58;;;;;;;18.17;7.60;;;;;;;28.17;42.33;99415.88;5083117;28;20029;-75
2021/08/18 05:41:24;;;;;;;19.77;7.50;;;;;;;27.98;42.15;99388.53;5082285;28;20044;-75
2021/08/18 05:43:51;;;;;;;22.00;8.25;;;;;;;27.89;42.45;99417.44;5083493;28;20032;-74
2021/08/18 05:46:17;;;;;;;25.17;8.38;;;;;;;28.00;42.71;99427.16;5082504;28;20044;-74
2021/08/18 05:48:42;;;;;;;15.93;7.90;;;;;;;28.58;41.39;99427.22;5064361;28;20221;-75
2021/08/18 05:51:08;;;;;;;18.05;8.82;;;;;;;28.91;40.14;99433.72;5064812;28;20028;-75
2021/08/18 05:53:34;;;;;;;31.77;8.68;;;;;;;29.25;39.60;99417.25;5084261;28;20045;-78
2021/08/18 05:55:59;;;;;;;18.33;8.85;;;;;;;30.00;37.88;99424.63;5080859;28;20074;-77
2021/08/18 05:58:25;;;;;;;21.25;7.70;;;;;;;30.43;36.75;99414.41;5081552;28;20038;-78
2021/08/18 06:00:50;;;;;;;17.23;7.90;;;;;;;30.45;36.81;99421.19;5082769;28;20199;-79
2021/08/18 06:03:16;;;;;;;13.75;6.88;;;;;;;30.57;36.80;99428.09;5082000;28;20129;-76
2021/08/18 06:05:41;;;;;;;11.55;6.05;;;;;;;30.62;37.52;99408.88;5065085;28;20036;-75
2021/08/18 06:08:07;;;;;;;13.57;6.20;;;;;;;30.13;37.63;99415.72;5081429;28;20032;-75
2021/08/18 06:10:33;;;;;;;19.95;5.97;;;;;;;30.24;37.51;99424.56;5064168;28;20051;-75
2021/08/18 06:13:01;;;;;;;16.13;5.88;;;;;;;30.30;37.48;99399.59;5064440;28;20135;-74
2021/08/18 06:15:30;;;;;;;11.45;5.35;;;;;;;30.72;36.76;99406.78;5082162;28;20044;-74
2021/08/18 06:17:56;;;;;;;13.05;5.45;;;;;;;30.52;37.01;99398.94;5083136;28;20306;-75
2021/08/18 06:20:22;;;;;;;12.90;6.32;;;;;;;30.45;37.63;99401.25;5082177;28;20028;-76
2021/08/18 06:22:48;;;;;;;9.85;5.65;;;;;;;30.45;37.46;99404.78;5083538;28;20104;-74
2021/08/18 06:25:13;;;;;;;14.40;5.68;;;;;;;30.46;36.92;99384.56;5090461;28;20103;-75
2021/08/18 06:27:39;;;;;;;9.63;5.35;;;;;;;30.22;37.50;99405.75;5086804;28;20052;-75
2021/08/18 06:30:06;;;;;;;10.77;5.47;;;;;;;30.01;38.35;99394.34;5081281;28;20028;-75
2021/08/18 06:32:32;;;;;;;10.05;6.03;;;;;;;29.53;39.54;99396.44;5080754;28;20088;-74
2021/08/18 06:34:58;;;;;;;13.40;5.72;;;;;;;29.56;39.31;99404.03;5081742;28;20032;-75
2021/08/18 06:37:23;;;;;;;12.32;5.93;;;;;;;29.99;37.35;99401.97;5063061;28;20032;-72
2021/08/18 06:39:49;;;;;;;22.73;5.93;;;;;;;29.95;36.77;99387.31;5081661;28;20052;-72
2021/08/18 06:42:15;;;;;;;15.60;5.50;;;;;;;30.34;36.52;99406.09;5081427;28;20024;-78
2021/08/18 06:44:40;;;;;;;12.00;5.22;;;;;;;30.68;36.10;99399.47;5081963;28;20059;-73
2021/08/18 06:47:06;;;;;;;17.65;5.82;;;;;;;30.92;35.96;99400.09;5081069;28;20036;-78
2021/08/18 06:49:33;;;;;;;10.15;5.50;;;;;;;31.35;34.45;99394.31;5081360;28;20056;-75
2021/08/18 06:51:59;;;;;;;15.07;6.07;;;;;;;31.43;34.29;99388.13;5063809;28;20092;-75
2021/08/18 06:54:24;;;;;;;13.45;5.60;;;;;;;31.42;34.20;99395.50;5081369;28;20032;-76
2021/08/18 06:56:50;;;;;;;9.85;6.03;;;;;;;31.52;33.99;99382.72;5081534;28;20040;-76
2021/08/18 06:59:15;;;;;;;12.45;5.65;;;;;;;31.91;33.46;99382.88;5081538;28;20023;-76
2021/08/18 07:01:42;;;;;;;7.90;5.43;;;;;;;32.49;32.96;99392.94;5081571;28;20120;-75
2021/08/18 07:04:07;;;;;;;12.50;5.53;;;;;;;32.16;32.75;99397.06;5064557;28;20276;-76
2021/08/18 07:06:33;;;;;;;9.90;5.35;;;;;;;32.48;31.80;99394.06;5068638;28;20028;-75
2021/08/18 07:08:59;;;;;;;10.13;4.75;;;;;;;32.29;31.99;99393.50;5083392;28;20032;-75
2021/08/18 07:11:25;;;;;;;10.77;5.55;;;;;;;32.64;31.50;99387.06;5066145;28;20222;-76
2021/08/18 07:13:50;;;;;;;11.63;5.43;;;;;;;32.81;31.22;99401.97;5067266;28;20043;-75
2021/08/18 07:16:16;;;;;;;13.23;5.80;;;;;;;32.86;31.33;99397.16;5066947;28;20023;-76
2021/08/18 07:18:41;;;;;;;11.82;5.45;;;;;;;32.95;31.21;99406.22;5083874;28;20195;-75
2021/08/18 07:21:07;;;;;;;10.95;5.55;;;;;;;33.22;30.72;99407.09;5072151;28;20055;-75
2021/08/18 07:23:33;;;;;;;15.90;6.32;;;;;;;32.89;30.81;99398.47;5089377;28;20036;-75
2021/08/18 07:25:58;;;;;;;9.70;5.38;;;;;;;33.08;31.14;99393.50;5071183;28;20724;-73
2021/08/18 07:28:24;;;;;;;14.90;5.63;;;;;;;33.20;30.80;99396.44;5087327;28;20044;-73
2021/08/18 07:30:50;;;;;;;12.63;5.32;;;;;;;33.41;31.15;99384.91;5071372;28;20096;-73
2021/08/18 07:33:15;;;;;;;10.20;5.50;;;;;;;33.30;30.74;99393.44;5088862;28;20112;-78
2021/08/18 07:35:40;;;;;;;11.70;5.30;;;;;;;33.56;30.42;99393.47;5088663;28;20044;-73
2021/08/18 07:38:06;;;;;;;15.98;5.38;;;;;;;33.63;29.66;99385.56;5085695;28;20028;-75
2021/08/18 07:40:32;;;;;;;10.02;5.75;;;;;;;33.97;29.42;99378.44;5089475;28;20321;-75
2021/08/18 07:42:59;;;;;;;9.30;5.20;;;;;;;33.97;29.69;99388.63;5087360;28;20281;-75
2021/08/18 07:45:25;;;;;;;13.25;6.03;;;;;;;33.82;29.99;99374.25;5091160;28;20128;-76
2021/08/18 07:47:51;;;;;;;15.75;5.45;;;;;;;33.83;29.72;99383.31;5089422;28;20029;-78
2021/08/18 07:50:16;;;;;;;15.07;5.38;;;;;;;33.92;30.04;99384.91;5087678;28;20042;-74
2021/08/18 07:52:42;;;;;;;9.88;5.25;;;;;;;34.13;29.73;99382.28;5089285;28;20025;-75
2021/08/18 07:55:08;;;;;;;8.27;5.55;;;;;;;34.10;29.78;99373.88;5085864;28;20256;-75
2021/08/18 07:57:34;;;;;;;12.95;5.45;;;;;;;33.73;30.45;99383.59;5091016;28;20403;-75
2021/08/18 08:00:05;;;;;;;8.52;5.38;;;;;;;33.23;31.07;99378.53;5088425;28;20206;-75
2021/08/18 08:02:31;;;;;;;13.15;5.60;;;;;;;34.06;29.98;99379.22;5087554;28;20052;-75
2021/08/18 08:04:57;;;;;;;12.30;5.30;;;;;;;34.49;29.00;99370.91;5090248;28;20047;-75
2021/08/18 08:07:22;;;;;;;12.05;5.65;;;;;;;34.30;28.67;99375.13;5087387;28;20085;-75
2021/08/18 08:09:47;;;;;;;8.88;5.22;;;;;;;34.19;28.66;99372.72;5088076;28;20032;-75
2021/08/18 08:12:13;;;;;;;13.80;5.78;;;;;;;34.22;28.93;99368.53;5073639;28;20340;-75
2021/08/18 08:14:38;;;;;;;12.30;5.90;;;;;;;34.27;28.43;99365.59;5091626;28;20339;-78
2021/08/18 08:17:04;;;;;;;12.15;5.97;;;;;;;34.06;29.15;99371.00;5085306;28;20391;-78
2021/08/18 08:19:29;;;;;;;12.40;5.45;;;;;;;34.34;29.25;99356.91;5091965;28;20066;-73
2021/08/18 08:21:55;;;;;;;13.30;6.03;;;;;;;34.52;28.58;99361.19;5086591;28;20044;-78
2021/08/18 08:24:20;;;;;;;12.77;6.03;;;;;;;34.45;28.22;99361.72;5087699;28;20036;-77
2021/08/18 08:26:46;;;;;;;12.13;5.93;;;;;;;34.27;29.36;99365.59;5088801;28;20305;-75
2021/08/18 08:29:11;;;;;;;9.82;5.65;;;;;;;34.65;28.33;99360.16;5088911;28;20033;-75
2021/08/18 08:31:37;;;;;;;9.20;5.75;;;;;;;34.39;28.35;99363.03;5088404;28;20107;-75
2021/08/18 08:34:03;;;;;;;13.43;5.75;;;;;;;34.49;28.14;99365.41;5085514;28;20025;-75
2021/08/18 08:36:28;;;;;;;19.13;5.72;;;;;;;34.76;27.75;99346.84;5073487;28;20335;-75
2021/08/18 08:38:54;;;;;;;16.05;5.80;;;;;;;34.78;27.33;99328.88;5087801;28;20042;-75
2021/08/18 08:41:20;;;;;;;15.43;5.70;;;;;;;35.03;27.06;99353.84;5085459;28;20317;-75
2021/08/18 08:43:46;;;;;;;17.45;5.65;;;;;;;35.28;27.12;99357.56;5089761;28;20138;-75
2021/08/18 08:46:12;;;;;;;11.82;6.25;;;;;;;35.36;26.85;99342.94;5086040;28;20112;-75
2021/08/18 08:48:41;;;;;;;9.27;5.57;;;;;;;35.24;27.19;99337.34;5087885;28;20056;-75
2021/08/18 08:51:07;;;;;;;16.33;6.25;;;;;;;35.09;27.28;99336.00;5087429;28;20111;-75
2021/08/18 08:53:34;;;;;;;10.45;6.15;;;;;;;35.48;27.17;99335.56;5088548;28;20048;-75
2021/08/18 08:56:00;;;;;;;12.05;5.63;;;;;;;35.55;27.08;99326.78;5086718;28;20028;-75
2021/08/18 08:58:25;;;;;;;12.27;6.15;;;;;;;35.66;26.72;99329.91;5087046;28;20133;-74
2021/08/18 09:00:52;;;;;;;14.07;5.65;;;;;;;35.76;26.40;99316.53;5087433;28;20044;-72
2021/08/18 09:03:22;;;;;;;17.98;6.43;;;;;;;35.83;26.58;99324.25;5085914;28;20032;-72
2021/08/18 09:05:48;;;;;;;10.63;6.10;;;;;;;35.14;27.40;99298.06;5087654;28;20069;-78
2021/08/18 09:08:20;;;;;;;13.63;6.00;;;;;;;35.34;26.61;99317.69;5088044;28;20396;-73
2021/08/18 09:11:08;;;;;;;10.32;6.20;;;;;;;35.28;26.74;99308.00;5067235;28;20251;-73
2021/08/18 09:13:48;;;;;;;10.30;5.57;;;;;;;35.35;26.20;99300.84;5083639;28;20036;-75
2021/08/18 09:16:15;;;;;;;17.02;6.22;;;;;;;35.59;27.04;99305.69;5082690;28;20096;-75
2021/08/18 09:18:52;;;;;;;13.85;5.38;;;;;;;35.29;25.73;99299.41;5082208;28;20041;-75
2021/08/18 09:21:36;;;;;;;17.50;5.88;;;;;;;35.48;26.96;99302.53;5100300;28;20393;-75
2021/08/18 09:24:11;;;;;;;12.43;5.68;;;;;;;35.45;26.24;99299.66;5086508;28;20100;-75
2021/08/18 09:26:37;;;;;;;15.25;6.07;;;;;;;35.67;26.29;99284.69;5099726;28;20042;-75
2021/08/18 09:29:02;;;;;;;12.23;5.78;;;;;;;35.65;26.86;99287.00;5087381;28;20039;-75
2021/08/18 09:31:28;;;;;;;10.35;5.65;;;;;;;35.77;26.04;99281.53;5063630;28;20095;-75
2021/08/18 09:33:57;;;;;;;12.20;6.40;;;;;;;35.88;25.80;99263.44;5081923;28;20337;-75
2021/08/18 09:36:25;;;;;;;14.48;6.10;;;;;;;35.47;26.47;99278.09;5082636;28;20096;-75
2021/08/18 09:39:10;;;;;;;21.17;10.82;;;;;;;34.92;26.17;99275.59;5064264;28;20039;-75
2021/08/18 09:41:36;;;;;;;9.38;5.45;;;;;;;34.81;26.57;99278.69;5081966;28;20119;-75
2021/08/18 09:44:08;;;;;;;11.90;6.93;;;;;;;34.85;26.38;99260.44;5069871;28;20317;-75
2021/08/18 09:46:36;;;;;;;11.52;5.75;;;;;;;34.88;26.87;99273.50;5081611;28;20077;-75
2021/08/18 09:49:12;;;;;;;8.60;5.53;;;;;;;34.40;27.25;99251.94;5081711;28;20032;-73
2021/08/18 09:51:39;;;;;;;41.60;7.65;;;;;;;34.26;27.42;99256.81;5082299;28;20140;-78
2021/08/18 09:54:12;;;;;;;8.13;5.65;;;;;;;34.32;27.15;99260.19;5063474;28;20052;-73
2021/08/18 09:56:46;;;;;;;9.65;5.45;;;;;;;34.30;27.71;99260.50;5082511;28;20036;-78
2021/08/18 09:59:12;;;;;;;8.90;5.47;;;;;;;34.26;27.21;99260.38;5071298;28;20024;-72
2021/08/18 10:01:39;;;;;;;11.65;5.78;;;;;;;34.45;26.92;99250.94;5081761;28;20032;-75
2021/08/18 10:04:05;;;;;;;10.85;6.15;;;;;;;34.63;26.16;99249.72;5063047;28;20361;-75
2021/08/18 10:06:31;;;;;;;8.90;5.63;;;;;;;34.51;25.73;99249.63;5064142;28;20035;-75
2021/08/18 10:08:57;;;;;;;13.65;5.72;;;;;;;34.51;26.81;99252.38;5080946;28;20047;-75
2021/08/18 10:11:25;;;;;;;7.93;5.35;;;;;;;34.49;26.58;99238.97;5063590;28;20229;-75
2021/08/18 10:13:52;;;;;;;12.13;5.28;;;;;;;34.43;26.21;99233.97;5082724;28;20218;-75
2021/08/18 10:16:18;;;;;;;15.40;5.93;;;;;;;34.57;26.36;99235.34;5081987;28;20047;-75
2021/08/18 10:18:49;;;;;;;11.60;5.88;;;;;;;33.97;26.89;99254.84;5081753;28;20036;-75
2021/08/18 10:21:17;;;;;;;21.38;5.75;;;;;;;34.14;26.87;99240.22;5063203;28;20319;-76
2021/08/18 10:24:00;;;;;;;12.88;6.40;;;;;;;33.95;27.47;99238.69;5081908;28;20047;-75
2021/08/18 10:26:33;;;;;;;9.70;5.93;;;;;;;33.90;27.20;99229.81;5081361;28;20031;-75
2021/08/18 10:29:05;;;;;;;10.15;5.65;;;;;;;33.89;26.80;99217.22;5081610;28;20377;-75
2021/08/18 10:31:45;;;;;;;11.77;5.53;;;;;;;34.25;27.51;99231.28;5081037;28;20330;-75
2021/08/18 10:34:43;;;;;;;13.27;5.82;;;;;;;34.31;26.92;99209.91;5081842;28;20020;-75
2021/08/18 10:37:17;;;;;;;10.60;5.72;;;;;;;34.21;26.49;99213.84;5081824;28;20302;-78
2021/08/18 10:39:54;;;;;;;10.23;5.90;;;;;;;34.15;26.36;99215.16;5081968;28;20036;-78
2021/08/18 10:42:43;;;;;;;12.88;5.85;;;;;;;33.82;26.71;99212.22;5082647;28;20037;-78
2021/08/18 10:45:17;;;;;;;11.32;6.25;;;;;;;34.05;26.76;99206.50;5083043;28;20040;-73
2021/08/18 10:47:42;;;;;;;13.57;6.22;;;;;;;34.11;26.21;99200.47;5095853;28;20066;-77
2021/08/18 10:50:16;;;;;;;11.32;6.05;;;;;;;34.02;26.38;99207.94;5082040;28;20203;-75
2021/08/18 10:52:42;;;;;;;11.60;6.40;;;;;;;33.91;27.60;99210.25;5082128;28;20040;-75
2021/08/18 10:55:23;;;;;;;7.70;5.68;;;;;;;33.74;28.03;99202.06;5083316;28;20387;-75
2021/08/18 10:57:53;;;;;;;16.35;6.38;;;;;;;33.68;28.31;99192.38;5084925;28;20055;-74
2021/08/18 11:00:37;;;;;;;15.77;6.90;;;;;;;33.23;27.95;99194.69;5084825;28;20040;-74
2021/08/18 11:03:07;;;;;;;11.93;6.07;;;;;;;33.35;27.75;99180.38;5085926;28;20036;-74
2021/08/18 11:05:39;;;;;;;10.68;6.68;;;;;;;33.41;27.80;99182.63;5066278;28;20028;-75
2021/08/18 11:08:07;;;;;;;11.48;5.78;;;;;;;33.57;28.85;99178.22;5085048;28;20094;-75
2021/08/18 11:10:37;;;;;;;12.20;5.88;;;;;;;33.49;29.04;99170.81;5066544;28;20028;-74
2021/08/18 11:13:06;;;;;;;17.42;5.95;;;;;;;33.31;29.38;99172.78;5085423;28;20036;-74
2021/08/18 11:15:31;;;;;;;10.93;6.65;;;;;;;33.28;29.49;99167.91;5077712;28;20072;-75
2021/08/18 11:17:57;;;;;;;12.65;6.00;;;;;;;33.29;28.99;99165.97;5085833;28;20036;-75
2021/08/18 11:20:28;;;;;;;10.38;7.03;;;;;;;33.26;28.20;99158.38;5086324;28;20285;-75
2021/08/18 11:23:13;;;;;;;10.52;6.35;;;;;;;33.24;28.40;99164.19;5085488;28;20104;-77
2021/08/18 11:25:44;;;;;;;11.98;6.65;;;;;;;33.01;28.66;99166.31;5085744;28;20044;-72
2021/08/18 11:28:23;;;;;;;9.93;6.60;;;;;;;33.10;28.27;99157.28;5085654;28;20024;-72